createdAt,value
2018-02-14T00:02:04.371Z,101238.17
2018-02-14T00:04:30.211Z,101244.53
2018-02-14T00:06:56.035Z,101231.78
2018-02-14T00:09:21.866Z,101240.36
2018-02-14T00:11:47.692Z,101235.09
2018-02-14T00:14:13.515Z,101244.18
2018-02-14T00:16:39.334Z,101244.78
2018-02-14T00:19:05.159Z,101239.61
2018-02-14T00:21:30.991Z,101243.55
2018-02-14T00:23:56.814Z,101247.55
2018-02-14T00:26:22.640Z,101250.05
2018-02-14T00:28:48.499Z,101250.34
2018-02-14T00:31:14.325Z,101249.25
2018-02-14T00:33:40.147Z,101250.70
2018-02-14T00:36:05.972Z,101250.75
2018-02-14T00:38:31.793Z,101250.95
2018-02-14T00:40:57.620Z,101255.34
2018-02-14T00:43:23.447Z,101253.39
2018-02-14T00:45:49.266Z,101255.87
2018-02-14T00:48:15.082Z,101256.81
2018-02-14T00:50:40.898Z,101260.91
2018-02-14T00:53:07.338Z,101260.02
2018-02-14T00:55:33.159Z,101252.67
2018-02-14T00:57:58.980Z,101261.58
2018-02-14T01:00:24.863Z,101259.34
2018-02-14T01:02:50.682Z,101266.41
2018-02-14T01:05:16.515Z,101264.19
2018-02-14T01:07:42.342Z,101267.82
2018-02-14T01:10:08.206Z,101268.66
2018-02-14T01:12:34.034Z,101269.73
2018-02-14T01:14:59.910Z,101269.08
2018-02-14T01:17:25.728Z,101266.82
2018-02-14T01:19:57.738Z,101272.38
2018-02-14T01:22:23.638Z,101272.42
2018-02-14T01:24:49.550Z,101272.00
2018-02-14T01:27:15.394Z,101272.94
2018-02-14T01:29:41.387Z,101272.58
2018-02-14T01:32:07.823Z,101270.12
2018-02-14T01:34:34.215Z,101274.72
2018-02-14T01:37:00.552Z,101276.41
2018-02-14T01:39:26.968Z,101275.34
2018-02-14T01:41:53.540Z,101281.95
2018-02-14T01:44:19.992Z,101277.14
2018-02-14T01:46:46.464Z,101280.33
2018-02-14T01:49:12.963Z,101282.48
2018-02-14T01:51:39.369Z,101279.16
2018-02-14T01:54:05.992Z,101275.33
2018-02-14T01:56:32.487Z,101281.17
2018-02-14T01:58:58.882Z,101281.77
2018-02-14T02:01:25.386Z,101280.41
2018-02-14T02:03:51.926Z,101281.68
2018-02-14T02:06:18.517Z,101275.20
2018-02-14T02:08:45.053Z,101277.91
2018-02-14T02:11:11.411Z,101280.17
2018-02-14T02:13:37.923Z,101274.26
2018-02-14T02:16:04.484Z,101280.83
2018-02-14T02:18:30.999Z,101284.82
2018-02-14T02:20:57.402Z,101283.14
2018-02-14T02:23:23.882Z,101284.00
2018-02-14T02:25:50.340Z,101285.63
2018-02-14T02:28:16.731Z,101285.49
2018-02-14T02:30:43.143Z,101285.38
2018-02-14T02:33:09.707Z,101282.13
2018-02-14T02:35:36.261Z,101282.34
2018-02-14T02:38:02.972Z,101283.73
2018-02-14T02:40:31.429Z,101280.52
2018-02-14T02:42:57.873Z,101286.23
2018-02-14T02:45:25.299Z,101289.85
2018-02-14T02:47:51.841Z,101292.53
2018-02-14T02:50:18.187Z,101292.77
2018-02-14T02:52:44.789Z,101292.34
2018-02-14T02:55:12.112Z,101289.16
2018-02-14T02:57:38.639Z,101294.27
2018-02-14T03:00:06.051Z,101291.81
2018-02-14T03:02:32.456Z,101301.34
2018-02-14T03:04:58.850Z,101302.16
2018-02-14T03:07:26.376Z,101296.10
2018-02-14T03:09:52.742Z,101306.36
2018-02-14T03:12:19.146Z,101301.05
2018-02-14T03:14:46.340Z,101305.09
2018-02-14T03:17:12.717Z,101306.48
2018-02-14T03:19:39.207Z,101311.45
2018-02-14T03:22:06.523Z,101314.10
2018-02-14T03:24:33.694Z,101316.52
2018-02-14T03:27:00.188Z,101319.94
2018-02-14T03:29:26.664Z,101316.47
2018-02-14T03:31:53.056Z,101320.91
2018-02-14T03:34:19.623Z,101326.88
2018-02-14T03:36:46.059Z,101327.28
2018-02-14T03:39:12.527Z,101322.09
2018-02-14T03:41:39.053Z,101329.57
2018-02-14T03:44:05.649Z,101327.38
2018-02-14T03:46:32.895Z,101323.66
2018-02-14T03:49:00.134Z,101331.19
2018-02-14T03:51:26.518Z,101328.60
2018-02-14T03:53:53.233Z,101326.95
2018-02-14T03:56:20.677Z,101333.42
2018-02-14T03:58:47.873Z,101337.76
2018-02-14T04:01:14.491Z,101335.98
2018-02-14T04:03:41.075Z,101344.91
2018-02-14T04:06:07.508Z,101342.73
2018-02-14T04:08:34.031Z,101350.59
2018-02-14T04:11:00.634Z,101356.31
2018-02-14T04:13:28.068Z,101355.27
2018-02-14T04:15:54.469Z,101358.33
2018-02-14T04:18:20.929Z,101357.34
2018-02-14T04:20:48.205Z,101362.74
2018-02-14T04:23:14.731Z,101365.17
2018-02-14T04:25:41.095Z,101362.27
2018-02-14T04:28:08.550Z,101370.91
2018-02-14T04:30:35.009Z,101370.48
2018-02-14T04:33:01.383Z,101368.49
2018-02-14T04:35:27.930Z,101377.70
2018-02-14T04:37:54.210Z,101376.70
2018-02-14T04:40:21.632Z,101376.39
2018-02-14T04:42:49.164Z,101381.45
2018-02-14T04:45:16.242Z,101381.92
2018-02-14T04:47:43.319Z,101379.76
2018-02-14T04:50:10.830Z,101386.00
2018-02-14T04:52:37.288Z,101387.33
2018-02-14T04:55:10.233Z,101392.08
2018-02-14T04:57:37.534Z,101393.35
2018-02-14T05:00:09.003Z,101395.88
2018-02-14T05:02:35.531Z,101401.84
2018-02-14T05:05:01.867Z,101395.63
2018-02-14T05:07:29.319Z,101401.70
2018-02-14T05:09:55.758Z,101397.98
2018-02-14T05:12:22.097Z,101401.31
2018-02-14T05:14:49.524Z,101398.30
2018-02-14T05:17:16.948Z,101398.52
2018-02-14T05:19:44.266Z,101401.25
2018-02-14T05:22:10.886Z,101405.00
2018-02-14T05:24:37.352Z,101404.98
2018-02-14T05:27:03.681Z,101405.19
2018-02-14T05:29:30.291Z,101415.47
2018-02-14T05:31:56.827Z,101410.83
2018-02-14T05:34:24.239Z,101410.22
2018-02-14T05:36:50.518Z,101413.22
2018-02-14T05:39:17.862Z,101417.64
2018-02-14T05:41:44.368Z,101419.87
2018-02-14T05:44:10.862Z,101425.41
2018-02-14T05:46:37.187Z,101426.02
2018-02-14T05:49:03.891Z,101428.09
2018-02-14T05:51:31.414Z,101430.08
2018-02-14T05:53:58.023Z,101443.55
2018-02-14T05:56:24.502Z,101447.50
2018-02-14T05:58:51.095Z,101446.86
2018-02-14T06:01:17.743Z,101454.88
2018-02-14T06:03:44.287Z,101454.14
2018-02-14T06:06:10.695Z,101464.91
2018-02-14T06:08:36.878Z,101461.07
2018-02-14T06:11:03.378Z,101468.75
2018-02-14T06:13:30.623Z,101468.28
2018-02-14T06:15:56.527Z,101478.97
2018-02-14T06:18:23.434Z,101480.84
2018-02-14T06:20:49.275Z,101480.43
2018-02-14T06:23:15.098Z,101487.12
2018-02-14T06:25:40.914Z,101484.06
2018-02-14T06:28:06.733Z,101488.17
2018-02-14T06:30:36.373Z,101489.42
2018-02-14T06:33:02.186Z,101494.33
2018-02-14T06:35:28.002Z,101497.73
2018-02-14T06:37:53.810Z,101497.69
2018-02-14T06:40:19.648Z,101496.53
2018-02-14T06:42:45.479Z,101502.91
2018-02-14T06:45:11.418Z,101506.10
2018-02-14T06:47:37.235Z,101503.39
2018-02-14T06:50:03.055Z,101506.16
2018-02-14T06:52:28.886Z,101508.84
2018-02-14T06:54:54.699Z,101515.22
2018-02-14T06:57:20.510Z,101515.37
2018-02-14T06:59:46.326Z,101523.95
2018-02-14T07:02:13.029Z,101525.94
2018-02-14T07:04:38.862Z,101531.53
2018-02-14T07:07:04.710Z,101521.73
2018-02-14T07:09:31.363Z,101532.65
2018-02-14T07:11:57.209Z,101531.95
2018-02-14T07:14:23.018Z,101536.72
2018-02-14T07:16:49.774Z,101538.84
2018-02-14T07:19:15.585Z,101542.77
2018-02-14T07:21:42.195Z,101542.16
2018-02-14T07:24:08.830Z,101548.93
2018-02-14T07:26:35.726Z,101551.19
2018-02-14T07:29:01.535Z,101549.88
2018-02-14T07:31:27.414Z,101554.77
2018-02-14T07:33:54.214Z,101551.19
2018-02-14T07:36:20.023Z,101559.73
2018-02-14T07:38:45.878Z,101556.61
2018-02-14T07:41:11.690Z,101557.58
2018-02-14T07:43:37.509Z,101561.45
2018-02-14T07:46:03.330Z,101560.68
2018-02-14T07:48:29.161Z,101569.45
2018-02-14T07:50:55.830Z,101566.30
2018-02-14T07:53:21.654Z,101568.74
2018-02-14T07:55:48.417Z,101576.52
2018-02-14T07:58:14.230Z,101579.05
2018-02-14T08:00:41.081Z,101579.59
2018-02-14T08:03:06.940Z,101579.97
2018-02-14T08:05:33.609Z,101586.63
2018-02-14T08:07:59.415Z,101581.98
2018-02-14T08:10:25.314Z,101581.31
2018-02-14T08:12:51.119Z,101589.64
2018-02-14T08:15:16.922Z,101588.11
2018-02-14T08:17:43.663Z,101588.63
2018-02-14T08:20:10.495Z,101588.31
2018-02-14T08:22:37.291Z,101595.58
2018-02-14T08:25:03.163Z,101593.89
2018-02-14T08:27:28.975Z,101596.00
2018-02-14T08:29:54.861Z,101591.20
2018-02-14T08:32:21.509Z,101594.26
2018-02-14T08:34:48.310Z,101599.97
2018-02-14T08:37:14.158Z,101593.28
2018-02-14T08:39:41.134Z,101597.73
2018-02-14T08:42:07.967Z,101596.89
2018-02-14T08:44:34.763Z,101598.41
2018-02-14T08:47:01.554Z,101595.98
2018-02-14T08:49:28.322Z,101605.41
2018-02-14T08:51:54.986Z,101603.55
2018-02-14T08:54:21.782Z,101609.29
2018-02-14T08:56:48.594Z,101603.80
2018-02-14T08:59:14.400Z,101604.85
2018-02-14T09:01:40.209Z,101601.98
2018-02-14T09:04:06.845Z,101610.30
2018-02-14T09:06:32.650Z,101610.39
2018-02-14T09:08:59.378Z,101608.85
2018-02-14T09:11:26.166Z,101609.37
2018-02-14T09:13:52.918Z,101606.69
2018-02-14T09:16:18.721Z,101606.90
2018-02-14T09:18:44.643Z,101611.45
2018-02-14T09:21:10.505Z,101615.98
2018-02-14T09:23:36.311Z,101619.77
2018-02-14T09:26:02.120Z,101615.31
2018-02-14T09:28:27.934Z,101614.06
2018-02-14T09:30:53.741Z,101611.47
2018-02-14T09:33:20.493Z,101623.19
2018-02-14T09:35:46.298Z,101621.86
2018-02-14T09:38:12.959Z,101622.17
2018-02-14T09:40:38.762Z,101625.01
2018-02-14T09:43:04.569Z,101630.77
2018-02-14T09:45:30.427Z,101624.66
2018-02-14T09:47:57.168Z,101637.94
2018-02-14T09:50:22.965Z,101638.39
2018-02-14T09:52:48.773Z,101643.41
2018-02-14T09:55:14.576Z,101642.21
2018-02-14T09:57:40.381Z,101642.83
2018-02-14T10:00:06.233Z,101646.42
2018-02-14T10:02:32.049Z,101648.79
2018-02-14T10:04:57.856Z,101643.96
2018-02-14T10:07:23.670Z,101650.20
2018-02-14T10:09:50.490Z,101647.52
2018-02-14T10:12:16.301Z,101653.95
2018-02-14T10:14:42.115Z,101653.22
2018-02-14T10:17:07.915Z,101646.94
2018-02-14T10:19:33.722Z,101651.30
2018-02-14T10:21:59.533Z,101648.62
2018-02-14T10:24:25.334Z,101650.05
2018-02-14T10:26:51.173Z,101649.88
2018-02-14T10:29:16.988Z,101652.41
2018-02-14T10:31:42.817Z,101644.30
2018-02-14T10:34:08.616Z,101648.67
2018-02-14T10:36:34.413Z,101645.02
2018-02-14T10:39:00.225Z,101648.62
2018-02-14T10:41:26.939Z,101649.23
2018-02-14T10:43:52.791Z,101642.99
2018-02-14T10:46:19.410Z,101654.20
2018-02-14T10:48:45.276Z,101646.80
2018-02-14T10:51:11.459Z,101652.16
2018-02-14T10:53:37.261Z,101659.84
2018-02-14T10:56:03.108Z,101662.12
2018-02-14T10:58:29.875Z,101657.37
2018-02-14T11:01:01.643Z,101664.00
2018-02-14T11:03:34.554Z,101660.69
2018-02-14T11:06:07.461Z,101659.26
2018-02-14T11:08:34.242Z,101663.46
2018-02-14T11:11:00.097Z,101668.86
2018-02-14T11:13:26.795Z,101666.07
2018-02-14T11:15:52.630Z,101671.32
2018-02-14T11:18:19.342Z,101665.96
2018-02-14T11:20:45.934Z,101664.97
2018-02-14T11:23:12.793Z,101663.87
2018-02-14T11:25:39.511Z,101662.11
2018-02-14T11:28:05.325Z,101658.12
2018-02-14T11:30:31.166Z,101657.86
2018-02-14T11:32:57.814Z,101655.16
2018-02-14T11:35:24.539Z,101653.11
2018-02-14T11:37:51.466Z,101651.53
2018-02-14T11:40:18.153Z,101651.72
2018-02-14T11:42:44.056Z,101649.30
2018-02-14T11:45:10.706Z,101644.61
2018-02-14T11:47:36.513Z,101636.79
2018-02-14T11:50:02.324Z,101640.08
2018-02-14T11:52:28.826Z,101630.25
2018-02-14T11:54:54.678Z,101634.14
2018-02-14T11:57:21.339Z,101628.22
2018-02-14T11:59:48.105Z,101627.53
2018-02-14T12:02:14.889Z,101634.48
2018-02-14T12:04:40.690Z,101628.89
2018-02-14T12:07:07.342Z,101634.53
2018-02-14T12:09:34.125Z,101633.69
2018-02-14T12:12:00.901Z,101629.58
2018-02-14T12:14:26.702Z,101633.75
2018-02-14T12:16:53.585Z,101642.06
2018-02-14T12:19:20.202Z,101639.33
2018-02-14T12:21:46.042Z,101641.70
2018-02-14T12:24:11.882Z,101643.91
2018-02-14T12:26:38.503Z,101649.06
2018-02-14T12:29:04.341Z,101645.39
2018-02-14T12:31:30.967Z,101642.12
2018-02-14T12:33:57.714Z,101641.49
2018-02-14T12:36:23.557Z,101638.70
2018-02-14T12:38:49.397Z,101639.86
2018-02-14T12:41:16.137Z,101641.34
2018-02-14T12:43:42.926Z,101643.49
2018-02-14T12:46:08.731Z,101641.42
2018-02-14T12:48:35.416Z,101640.50
2018-02-14T12:51:02.048Z,101636.22
2018-02-14T12:53:28.866Z,101634.59
2018-02-14T12:55:54.837Z,101635.84
2018-02-14T12:58:21.615Z,101636.02
2018-02-14T13:00:48.418Z,101635.80
2018-02-14T13:03:15.236Z,101637.37
2018-02-14T13:05:41.113Z,101635.75
2018-02-14T13:08:07.915Z,101638.91
2018-02-14T13:10:33.771Z,101640.64
2018-02-14T13:13:00.375Z,101627.95
2018-02-14T13:15:26.177Z,101636.17
2018-02-14T13:17:52.980Z,101634.71
2018-02-14T13:20:18.821Z,101633.91
2018-02-14T13:22:45.485Z,101637.66
2018-02-14T13:25:11.334Z,101642.53
2018-02-14T13:27:38.127Z,101643.33
2018-02-14T13:30:03.976Z,101642.55
2018-02-14T13:32:29.817Z,101642.22
2018-02-14T13:34:56.448Z,101645.23
2018-02-14T13:37:23.273Z,101649.08
2018-02-14T13:39:49.937Z,101653.79
2018-02-14T13:42:15.841Z,101648.92
2018-02-14T13:44:42.489Z,101649.08
2018-02-14T13:47:09.234Z,101654.06
2018-02-14T13:49:36.010Z,101652.66
2018-02-14T13:52:01.809Z,101648.14
2018-02-14T13:54:27.658Z,101648.70
2018-02-14T13:56:53.470Z,101648.92
2018-02-14T13:59:19.304Z,101642.77
2018-02-14T14:01:45.105Z,101643.50
2018-02-14T14:04:10.909Z,101643.66
2018-02-14T14:06:37.713Z,101643.39
2018-02-14T14:09:03.549Z,101642.23
2018-02-14T14:11:29.347Z,101644.48
2018-02-14T14:13:55.154Z,101648.80
2018-02-14T14:16:20.958Z,101641.44
2018-02-14T14:18:46.772Z,101644.55
2018-02-14T14:21:12.586Z,101652.91
2018-02-14T14:23:38.396Z,101652.39
2018-02-14T14:26:05.046Z,101657.66
2018-02-14T14:28:30.861Z,101662.41
2018-02-14T14:30:56.671Z,101657.41
2018-02-14T14:33:22.482Z,101662.25
2018-02-14T14:35:48.286Z,101666.36
2018-02-14T14:38:14.107Z,101667.47
2018-02-14T14:40:39.909Z,101663.19
2018-02-14T14:43:05.724Z,101669.00
2018-02-14T14:45:31.529Z,101670.87
2018-02-14T14:47:57.345Z,101666.48
2018-02-14T14:50:25.012Z,101672.22
2018-02-14T14:52:50.839Z,101674.02
2018-02-14T14:55:16.685Z,101679.72
2018-02-14T14:57:43.437Z,101679.26
2018-02-14T15:00:09.253Z,101675.97
2018-02-14T15:02:35.050Z,101679.13
2018-02-14T15:05:00.859Z,101691.79
2018-02-14T15:07:26.714Z,101692.21
2018-02-14T15:09:52.526Z,101694.48
2018-02-14T15:12:18.337Z,101692.34
2018-02-14T15:14:44.154Z,101701.36
2018-02-14T15:17:09.967Z,101698.58
2018-02-14T15:19:35.803Z,101701.27
2018-02-14T15:22:02.655Z,101701.42
2018-02-14T15:24:29.327Z,101705.50
2018-02-14T15:26:56.142Z,101701.09
2018-02-14T15:29:22.079Z,101703.75
2018-02-14T15:31:47.886Z,101706.14
2018-02-14T15:34:14.694Z,101705.67
2018-02-14T15:36:41.334Z,101711.69
2018-02-14T15:39:07.189Z,101714.27
2018-02-14T15:41:33.034Z,101717.13
2018-02-14T15:43:58.866Z,101719.61
2018-02-14T15:46:25.527Z,101722.63
2018-02-14T15:48:51.342Z,101721.47
2018-02-14T15:51:17.266Z,101724.18
2018-02-14T15:53:43.986Z,101721.89
2018-02-14T15:56:10.712Z,101730.44
2018-02-14T15:58:36.523Z,101729.67
2018-02-14T16:01:02.335Z,101727.59
2018-02-14T16:03:28.960Z,101730.97
2018-02-14T16:05:54.811Z,101725.98
2018-02-14T16:08:21.535Z,101728.73
2018-02-14T16:10:47.350Z,101729.08
2018-02-14T16:13:13.977Z,101725.86
2018-02-14T16:15:39.800Z,101727.73
2018-02-14T16:18:06.570Z,101732.55
2018-02-14T16:20:33.304Z,101735.61
2018-02-14T16:22:59.127Z,101734.63
2018-02-14T16:25:24.935Z,101735.89
2018-02-14T16:27:51.687Z,101734.16
2018-02-14T16:30:17.493Z,101733.17
2018-02-14T16:32:44.254Z,101738.31
2018-02-14T16:35:11.069Z,101736.89
2018-02-14T16:37:37.794Z,101739.37
2018-02-14T16:40:04.573Z,101742.27
2018-02-14T16:42:30.561Z,101742.22
2018-02-14T16:44:57.351Z,101747.52
2018-02-14T16:47:24.035Z,101749.77
2018-02-14T16:49:50.854Z,101750.99
2018-02-14T16:52:16.702Z,101754.59
2018-02-14T16:54:43.355Z,101751.22
2018-02-14T16:57:10.265Z,101750.66
2018-02-14T16:59:36.075Z,101745.37
2018-02-14T17:02:01.924Z,101751.70
2018-02-14T17:04:27.741Z,101754.33
2018-02-14T17:06:53.663Z,101753.39
2018-02-14T17:09:19.480Z,101754.06
2018-02-14T17:11:46.166Z,101748.67
2018-02-14T17:14:11.985Z,101761.30
2018-02-14T17:16:37.823Z,101752.50
2018-02-14T17:19:04.569Z,101757.97
2018-02-14T17:21:30.384Z,101752.12
2018-02-14T17:23:57.066Z,101762.11
2018-02-14T17:26:22.865Z,101757.11
2018-02-14T17:28:48.673Z,101754.56
2018-02-14T17:31:15.348Z,101757.73
2018-02-14T17:33:41.198Z,101766.55
2018-02-14T17:36:07.886Z,101766.88
2018-02-14T17:38:33.706Z,101766.03
2018-02-14T17:41:00.359Z,101765.28
2018-02-14T17:43:26.171Z,101771.77
2018-02-14T17:45:51.975Z,101771.50
2018-02-14T17:48:18.722Z,101774.93
2018-02-14T17:50:45.513Z,101769.69
2018-02-14T17:53:11.338Z,101769.91
2018-02-14T17:55:37.171Z,101774.98
2018-02-14T17:58:03.947Z,101773.52
2018-02-14T18:00:31.246Z,101780.48
2018-02-14T18:02:57.149Z,101782.36
2018-02-14T18:05:22.960Z,101781.34
2018-02-14T18:07:48.765Z,101785.67
2018-02-14T18:10:14.577Z,101782.09
2018-02-14T18:12:40.387Z,101785.84
2018-02-14T18:15:06.351Z,101791.84
2018-02-14T18:17:32.159Z,101793.09
2018-02-14T18:19:57.978Z,101799.64
2018-02-14T18:22:24.790Z,101807.24
2018-02-14T18:24:50.618Z,101801.04
2018-02-14T18:27:16.435Z,101809.44
2018-02-14T18:29:42.265Z,101806.09
2018-02-14T18:32:08.111Z,101800.16
2018-02-14T18:34:33.916Z,101807.92
2018-02-14T18:36:59.902Z,101812.57
2018-02-14T18:39:26.705Z,101812.91
2018-02-14T18:41:52.509Z,101819.91
2018-02-14T18:44:18.434Z,101819.08
2018-02-14T18:46:44.317Z,101823.67
2018-02-14T18:49:10.129Z,101825.47
2018-02-14T18:51:35.933Z,101825.66
2018-02-14T18:54:01.778Z,101828.44
2018-02-14T18:56:27.580Z,101838.48
2018-02-14T18:58:53.413Z,101841.34
2018-02-14T19:01:19.213Z,101838.39
2018-02-14T19:03:45.017Z,101830.88
2018-02-14T19:06:12.997Z,101833.80
2018-02-14T19:08:38.886Z,101835.11
2018-02-14T19:11:08.316Z,101831.24
2018-02-14T19:13:35.480Z,101835.52
2018-02-14T19:16:01.475Z,101833.27
2018-02-14T19:18:27.421Z,101840.66
2018-02-14T19:20:53.259Z,101839.95
2018-02-14T19:23:19.130Z,101846.55
2018-02-14T19:25:44.938Z,101843.37
2018-02-14T19:28:10.742Z,101850.30
2018-02-14T19:30:36.537Z,101844.98
2018-02-14T19:33:02.342Z,101852.23
2018-02-14T19:35:28.154Z,101847.47
2018-02-14T19:37:53.957Z,101850.80
2018-02-14T19:40:19.794Z,101851.98
2018-02-14T19:42:45.603Z,101853.81
2018-02-14T19:45:12.417Z,101855.22
2018-02-14T19:47:38.231Z,101850.34
2018-02-14T19:50:04.997Z,101850.00
2018-02-14T19:52:30.802Z,101848.22
2018-02-14T19:54:56.674Z,101851.80
2018-02-14T19:57:22.486Z,101856.77
2018-02-14T19:59:49.317Z,101860.48
2018-02-14T20:02:15.139Z,101866.17
2018-02-14T20:04:40.946Z,101874.02
2018-02-14T20:07:06.804Z,101879.05
2018-02-14T20:09:32.621Z,101880.41
2018-02-14T20:11:58.421Z,101880.64
2018-02-14T20:14:24.233Z,101883.31
2018-02-14T20:16:50.848Z,101881.81
2018-02-14T20:19:17.514Z,101888.30
2018-02-14T20:21:43.365Z,101883.75
2018-02-14T20:24:09.181Z,101877.97
2018-02-14T20:26:34.984Z,101874.48
2018-02-14T20:29:00.819Z,101875.94
2018-02-14T20:31:26.634Z,101868.91
2018-02-14T20:33:52.515Z,101863.50
2018-02-14T20:36:18.582Z,101868.23
2018-02-14T20:38:44.581Z,101867.91
2018-02-14T20:41:10.590Z,101870.63
2018-02-14T20:43:37.345Z,101876.19
2018-02-14T20:46:03.261Z,101866.27
2018-02-14T20:48:29.129Z,101876.88
2018-02-14T20:50:54.999Z,101866.65
2018-02-14T20:53:20.822Z,101868.48
2018-02-14T20:55:46.625Z,101862.50
2018-02-14T20:58:12.439Z,101859.59
2018-02-14T21:00:38.265Z,101861.48
2018-02-14T21:03:04.077Z,101866.73
2018-02-14T21:05:31.474Z,101866.09
2018-02-14T21:07:57.274Z,101868.53
2018-02-14T21:10:23.211Z,101865.05
2018-02-14T21:12:49.017Z,101864.34
2018-02-14T21:15:14.960Z,101868.71
2018-02-14T21:17:40.773Z,101870.04
2018-02-14T21:20:06.596Z,101872.56
2018-02-14T21:22:32.469Z,101877.21
2018-02-14T21:24:58.294Z,101867.02
2018-02-14T21:27:24.097Z,101867.72
2018-02-14T21:29:50.751Z,101871.40
2018-02-14T21:32:16.565Z,101863.70
2018-02-14T21:34:42.523Z,101868.86
2018-02-14T21:37:08.450Z,101867.58
2018-02-14T21:39:34.306Z,101876.12
2018-02-14T21:42:17.418Z,101872.66
2018-02-14T21:44:43.226Z,101873.20
2018-02-14T21:47:09.826Z,101870.04
2018-02-14T21:49:35.633Z,101869.88
2018-02-14T21:52:01.444Z,101869.70
2018-02-14T21:54:27.257Z,101869.41
2018-02-14T21:56:53.062Z,101879.61
2018-02-14T21:59:18.942Z,101876.42
2018-02-14T22:01:44.782Z,101879.86
2018-02-14T22:04:11.369Z,101870.27
2018-02-14T22:06:37.173Z,101870.55
2018-02-14T22:09:03.903Z,101865.25
2018-02-14T22:11:30.702Z,101862.80
2018-02-14T22:13:56.506Z,101852.73
2018-02-14T22:16:22.446Z,101857.44
2018-02-14T22:18:48.255Z,101860.39
2018-02-14T22:21:14.056Z,101859.91
2018-02-14T22:23:39.866Z,101860.30
2018-02-14T22:26:07.605Z,101854.39
2018-02-14T22:28:33.436Z,101843.25
2018-02-14T22:30:59.453Z,101850.48
2018-02-14T22:33:25.261Z,101850.96
2018-02-14T22:35:51.073Z,101849.59
2018-02-14T22:38:16.893Z,101846.02
2018-02-14T22:40:42.846Z,101848.08
2018-02-14T22:43:08.656Z,101845.92
2018-02-14T22:45:34.474Z,101839.86
2018-02-14T22:48:00.282Z,101847.76
2018-02-14T22:50:26.147Z,101839.59
2018-02-14T22:52:52.121Z,101840.56
2018-02-14T22:55:18.025Z,101842.41
2018-02-14T22:57:43.849Z,101843.30
2018-02-14T23:00:09.673Z,101844.62
2018-02-14T23:02:35.491Z,101842.40
2018-02-14T23:05:01.309Z,101840.01
2018-02-14T23:07:27.118Z,101832.53
2018-02-14T23:09:53.001Z,101828.50
2018-02-14T23:12:18.862Z,101830.46
2018-02-14T23:14:44.797Z,101825.31
2018-02-14T23:17:10.709Z,101828.73
2018-02-14T23:19:36.575Z,101817.31
2018-02-14T23:22:02.401Z,101818.27
2018-02-14T23:24:28.214Z,101816.47
2018-02-14T23:26:54.834Z,101810.74
2018-02-14T23:29:21.564Z,101819.70
2018-02-14T23:31:47.378Z,101822.19
2018-02-14T23:34:13.182Z,101825.08
2018-02-14T23:36:40.016Z,101826.17
2018-02-14T23:39:05.846Z,101829.34
2018-02-14T23:41:31.658Z,101823.19
2018-02-14T23:43:57.453Z,101821.77
2018-02-14T23:46:23.270Z,101822.19
2018-02-14T23:48:49.094Z,101809.94
2018-02-14T23:53:48.283Z,101815.43
2018-02-14T23:56:14.911Z,101808.95
2018-02-14T23:58:40.788Z,101809.19
